^^
Station Historical Data
Daily Summary for April 28, 2017 Units:  English    Metric   Both
« Previous Day
Next Day »
Daily Weekly Monthly Yearly Custom
  High: Low: Average:
Temperature: 81.0 °F 58.6 °F 69.7 °F
Dew Point: 62.4 °F 43.2 °F 53.5 °F
Humidity: 94 % 27 % 62 %
Wind Speed: 11.1 mph 0.0 mph 1.6 mph
Wind Gust: 13.8 mph - -
Wind:- - WSW
Pressure: 30.05 in 29.82 in -
Precipitation: 0.00 in    
Historical Graphs
 
 
Tabular Data for April 28, 2017
Time Temperature Dew Point Pressure Wind Wind Speed Wind Gust Humidity Rainfall Rate (Hourly) solar Conditions
00:03 65.9 °F 61.6 °F 29.83 in Calm     86 % 0.00 in 0.0 W/m2 CLR
00:08 65.9 °F 61.3 °F 29.83 in Calm     85 % 0.00 in 0.0 W/m2 CLR
00:13 65.8 °F 61.2 °F 29.82 in NNE 0.6 mph 3.0 mph 85 % 0.00 in 0.0 W/m2 CLR
00:18 65.6 °F 61.0 °F 29.82 in Calm     85 % 0.00 in 0.0 W/m2 CLR
00:23 65.5 °F 60.9 °F 29.82 in Calm   1.2 mph 85 % 0.00 in 0.0 W/m2 CLR
00:28 65.4 °F 61.1 °F 29.82 in Calm     86 % 0.00 in 0.0 W/m2 CLR
00:33 65.4 °F 61.1 °F 29.82 in East 0.9 mph 3.5 mph 86 % 0.00 in 0.0 W/m2 CLR
00:38 65.3 °F 61.0 °F 29.82 in Calm     86 % 0.00 in 0.0 W/m2 CLR
00:43 65.2 °F 60.9 °F 29.82 in Calm   1.2 mph 86 % 0.00 in 0.0 W/m2 CLR
00:48 65.1 °F 60.8 °F 29.82 in Calm     86 % 0.00 in 0.0 W/m2 CLR
00:53 65.0 °F 60.7 °F 29.83 in Calm     86 % 0.00 in 0.0 W/m2 CLR
00:58 64.9 °F 60.6 °F 29.83 in Calm     86 % 0.00 in 0.0 W/m2 CLR
01:03 64.7 °F 60.4 °F 29.83 in Calm     86 % 0.00 in 0.0 W/m2 CLR
01:08 64.5 °F 60.2 °F 29.83 in Calm     86 % 0.00 in 0.0 W/m2 CLR
01:13 64.2 °F 59.9 °F 29.83 in Calm     86 % 0.00 in 0.0 W/m2 CLR
01:18 63.9 °F 60.0 °F 29.83 in Calm     87 % 0.00 in 0.0 W/m2 CLR
01:23 63.7 °F 59.8 °F 29.83 in Calm     87 % 0.00 in 0.0 W/m2 CLR
01:28 63.5 °F 59.6 °F 29.83 in Calm     87 % 0.00 in 0.0 W/m2 CLR
01:33 63.5 °F 59.9 °F 29.83 in Calm     88 % 0.00 in 0.0 W/m2 CLR
01:38 63.3 °F 59.7 °F 29.83 in Calm     88 % 0.00 in 0.0 W/m2 CLR
01:43 63.3 °F 59.7 °F 29.83 in Calm     88 % 0.00 in 0.0 W/m2 CLR
01:48 63.2 °F 59.6 °F 29.83 in Calm     88 % 0.00 in 0.0 W/m2 CLR
01:53 63.0 °F 59.4 °F 29.83 in Calm     88 % 0.00 in 0.0 W/m2 CLR
01:58 62.7 °F 59.4 °F 29.83 in Calm     89 % 0.00 in 0.0 W/m2 CLR
02:03 62.6 °F 59.3 °F 29.83 in Calm     89 % 0.00 in 0.0 W/m2 CLR
02:08 62.5 °F 59.2 °F 29.83 in Calm     89 % 0.00 in 0.0 W/m2 CLR
02:13 62.5 °F 59.2 °F 29.83 in Calm     89 % 0.00 in 0.0 W/m2 CLR
02:18 62.5 °F 59.2 °F 29.83 in Calm     89 % 0.00 in 0.0 W/m2 CLR
02:23 62.5 °F 59.2 °F 29.83 in Calm     89 % 0.00 in 0.0 W/m2 CLR
02:28 62.5 °F 59.2 °F 29.83 in Calm     89 % 0.00 in 0.0 W/m2 CLR
02:33 62.3 °F 59.0 °F 29.84 in Calm     89 % 0.00 in 0.0 W/m2 CLR
02:38 62.1 °F 59.1 °F 29.83 in Calm     90 % 0.00 in 0.0 W/m2 CLR
02:43 62.1 °F 59.1 °F 29.83 in Calm   1.2 mph 90 % 0.00 in 0.0 W/m2 CLR
02:44 62.1 °F 59.1 °F 29.83 in Calm     90 % 0.00 in 0.0 W/m2 CLR
02:49 62.3 °F 59.3 °F 29.83 in Calm     90 % 0.00 in 0.0 W/m2 CLR
02:54 62.2 °F 58.9 °F 29.84 in Calm     89 % 0.00 in 0.0 W/m2 CLR
02:59 61.9 °F 58.9 °F 29.84 in Calm     90 % 0.00 in 0.0 W/m2 CLR
03:04 61.9 °F 58.9 °F 29.84 in Calm     90 % 0.00 in 0.0 W/m2 CLR
03:09 61.8 °F 58.8 °F 29.84 in Calm     90 % 0.00 in 0.0 W/m2 CLR
03:14 61.7 °F 58.7 °F 29.84 in Calm     90 % 0.00 in 0.0 W/m2 CLR
03:19 61.7 °F 59.0 °F 29.84 in Calm     91 % 0.00 in 0.0 W/m2 CLR
03:24 61.5 °F 58.8 °F 29.85 in Calm     91 % 0.00 in 0.0 W/m2 CLR
03:29 61.2 °F 58.6 °F 29.85 in Calm     91 % 0.00 in 0.0 W/m2 CLR
03:34 61.1 °F 58.5 °F 29.85 in Calm     91 % 0.00 in 0.0 W/m2 CLR
03:39 60.9 °F 58.3 °F 29.86 in Calm     91 % 0.00 in 0.0 W/m2 CLR
03:44 60.6 °F 58.0 °F 29.85 in NW 2.4 mph 3.5 mph 91 % 0.00 in 0.0 W/m2 CLR
03:49 60.6 °F 58.0 °F 29.86 in NW 2.1 mph 3.5 mph 91 % 0.00 in 0.0 W/m2 CLR
03:54 60.5 °F 57.9 °F 29.86 in Calm     91 % 0.00 in 0.0 W/m2 CLR
03:59 60.2 °F 57.6 °F 29.86 in Calm     91 % 0.00 in 0.0 W/m2 CLR
04:04 60.2 °F 57.9 °F 29.86 in Calm     92 % 0.00 in 0.0 W/m2 CLR
04:09 60.2 °F 57.9 °F 29.86 in Calm     92 % 0.00 in 0.0 W/m2 CLR
04:14 60.1 °F 57.8 °F 29.87 in Calm     92 % 0.00 in 0.0 W/m2 CLR
04:19 60.0 °F 57.7 °F 29.87 in Calm     92 % 0.00 in 0.0 W/m2 CLR
04:24 60.2 °F 57.9 °F 29.88 in Calm     92 % 0.00 in 0.0 W/m2 CLR
04:29 60.1 °F 57.8 °F 29.88 in Calm     92 % 0.00 in 0.0 W/m2 CLR
04:34 60.0 °F 57.7 °F 29.88 in Calm     92 % 0.00 in 0.0 W/m2 CLR
04:39 59.9 °F 57.6 °F 29.88 in Calm     92 % 0.00 in 0.0 W/m2 CLR
04:44 59.8 °F 57.5 °F 29.89 in Calm     92 % 0.00 in 0.0 W/m2 CLR
04:49 59.8 °F 57.8 °F 29.89 in Calm     93 % 0.00 in 0.0 W/m2 CLR
04:54 60.1 °F 58.1 °F 29.89 in Calm     93 % 0.00 in 0.0 W/m2 CLR
04:59 59.8 °F 57.5 °F 29.90 in Calm     92 % 0.00 in 0.0 W/m2 CLR
05:04 59.7 °F 57.7 °F 29.90 in Calm     93 % 0.00 in 0.0 W/m2 CLR
05:09 59.6 °F 57.6 °F 29.90 in Calm     93 % 0.00 in 0.0 W/m2 CLR
05:14 59.3 °F 57.3 °F 29.90 in NW 1.2 mph 2.3 mph 93 % 0.00 in 0.0 W/m2 CLR
05:19 59.2 °F 57.2 °F 29.90 in Calm     93 % 0.00 in 0.0 W/m2 CLR
05:24 59.2 °F 57.2 °F 29.90 in Calm     93 % 0.00 in 0.0 W/m2 CLR
05:29 59.1 °F 57.1 °F 29.90 in Calm   1.2 mph 93 % 0.00 in 0.0 W/m2 CLR
05:34 59.2 °F 57.2 °F 29.90 in Calm     93 % 0.00 in 0.0 W/m2 CLR
05:39 59.2 °F 57.2 °F 29.90 in Calm     93 % 0.00 in 0.0 W/m2 CLR
05:44 58.9 °F 56.9 °F 29.91 in Calm     93 % 0.00 in 0.0 W/m2 CLR
05:49 58.8 °F 56.8 °F 29.91 in NW 1.5 mph 3.5 mph 93 % 0.00 in 0.0 W/m2 CLR
05:54 58.9 °F 57.2 °F 29.91 in NW 0.5 mph 3.5 mph 94 % 0.00 in 0.0 W/m2 CLR
05:59 58.9 °F 57.2 °F 29.91 in NW 0.9 mph 3.5 mph 94 % 0.00 in 0.0 W/m2 CLR
06:02 58.9 °F 57.2 °F 29.91 in NW 1.3 mph 3.5 mph 94 % 0.00 in 0.0 W/m2 CLR
06:07 58.8 °F 57.1 °F 29.92 in Calm     94 % 0.00 in 0.0 W/m2 CLR
06:12 58.7 °F 57.0 °F 29.92 in Calm     94 % 0.00 in 0.0 W/m2 CLR
06:18 58.6 °F 56.9 °F 29.92 in Calm     94 % 0.00 in 5.0 W/m2 CLR
06:23 58.7 °F 57.0 °F 29.92 in Calm     94 % 0.00 in 9.0 W/m2 CLR
06:28 58.6 °F 56.9 °F 29.92 in Calm     94 % 0.00 in 14.0 W/m2 CLR
06:33 58.7 °F 57.0 °F 29.92 in Calm     94 % 0.00 in 18.0 W/m2 CLR
06:38 58.8 °F 57.1 °F 29.93 in Calm     94 % 0.00 in 19.0 W/m2 CLR
06:43 58.8 °F 57.1 °F 29.93 in Calm     94 % 0.00 in 23.0 W/m2 CLR
06:48 58.6 °F 56.9 °F 29.94 in Calm     94 % 0.00 in 26.0 W/m2 CLR
06:53 58.7 °F 57.0 °F 29.94 in Calm     94 % 0.00 in 30.0 W/m2 BKN
06:58 58.9 °F 57.2 °F 29.94 in Calm     94 % 0.00 in 32.0 W/m2 BKN
07:03 59.0 °F 57.3 °F 29.95 in Calm     94 % 0.00 in 35.0 W/m2 BKN
07:08 59.1 °F 57.4 °F 29.95 in Calm     94 % 0.00 in 37.0 W/m2 BKN
07:13 59.3 °F 57.6 °F 29.95 in Calm     94 % 0.00 in 39.0 W/m2 BKN
07:18 59.5 °F 57.8 °F 29.96 in Calm     94 % 0.00 in 47.0 W/m2 BKN
07:23 59.6 °F 57.9 °F 29.96 in Calm     94 % 0.00 in 53.0 W/m2 BKN
07:28 60.0 °F 58.3 °F 29.97 in Calm     94 % 0.00 in 56.0 W/m2 BKN
07:33 60.1 °F 58.4 °F 29.97 in Calm     94 % 0.00 in 74.0 W/m2 BKN
07:38 60.3 °F 58.6 °F 29.97 in Calm     94 % 0.00 in 74.0 W/m2 BKN
07:43 60.6 °F 58.9 °F 29.97 in Calm     94 % 0.00 in 49.0 W/m2 BKN
07:48 61.0 °F 59.3 °F 29.97 in Calm     94 % 0.00 in 47.0 W/m2 OVC
07:53 61.2 °F 59.2 °F 29.97 in Calm     93 % 0.00 in 49.0 W/m2 OVC
07:58 61.6 °F 59.6 °F 29.98 in NW 0.7 mph 2.3 mph 93 % 0.00 in 74.0 W/m2 BKN
08:03 62.0 °F 60.0 °F 29.98 in Calm     93 % 0.00 in 116.0 W/m2 BKN
08:08 62.4 °F 60.0 °F 29.98 in NW 0.1 mph 2.3 mph 92 % 0.00 in 262.0 W/m2 CLR
08:13 63.0 °F 60.6 °F 29.98 in WNW 1.8 mph 3.5 mph 92 % 0.00 in 287.0 W/m2 CLR
08:18 63.6 °F 60.9 °F 29.98 in WNW 1.7 mph 3.5 mph 91 % 0.00 in 146.0 W/m2 SCT
08:23 64.4 °F 61.7 °F 29.98 in WNW 0.4 mph   91 % 0.00 in 297.0 W/m2 CLR
08:28 64.9 °F 61.6 °F 29.98 in Calm     89 % 0.00 in 367.0 W/m2 CLR
08:33 65.7 °F 62.4 °F 29.98 in West 0.2 mph 3.5 mph 89 % 0.00 in 406.0 W/m2 CLR
08:38 66.4 °F 62.4 °F 29.98 in Calm     87 % 0.00 in 438.0 W/m2 CLR
08:43 66.9 °F 62.2 °F 29.98 in WSW 2.0 mph 3.5 mph 85 % 0.00 in 459.0 W/m2 CLR
08:48 67.7 °F 62.0 °F 29.99 in West 5.9 mph 6.9 mph 82 % 0.00 in 480.0 W/m2 CLR
08:53 68.5 °F 62.1 °F 29.99 in West 6.7 mph 10.4 mph 80 % 0.00 in 512.0 W/m2 CLR
08:58 68.8 °F 61.7 °F 29.99 in West 3.7 mph 9.2 mph 78 % 0.00 in 526.0 W/m2 CLR
09:03 69.3 °F 61.4 °F 29.99 in WSW 2.8 mph 11.5 mph 76 % 0.00 in 499.0 W/m2 CLR
09:08 69.6 °F 61.3 °F 29.99 in West 5.8 mph 8.1 mph 75 % 0.00 in 513.0 W/m2 CLR
09:13 69.7 °F 61.0 °F 29.99 in West 4.2 mph 9.2 mph 74 % 0.00 in 559.0 W/m2 CLR
09:18 70.2 °F 61.1 °F 29.99 in WSW 0.1 mph 4.6 mph 73 % 0.00 in 582.0 W/m2 CLR
09:23 70.1 °F 60.3 °F 29.99 in West 4.8 mph 10.4 mph 71 % 0.00 in 592.0 W/m2 CLR
09:28 70.0 °F 60.2 °F 29.99 in WSW 4.1 mph 6.9 mph 71 % 0.00 in 603.0 W/m2 CLR
09:33 70.6 °F 60.3 °F 29.99 in WNW 1.8 mph 6.9 mph 70 % 0.00 in 624.0 W/m2 CLR
09:38 71.5 °F 59.1 °F 29.99 in WNW 4.2 mph 9.2 mph 65 % 0.00 in 647.0 W/m2 CLR
09:43 72.6 °F 57.9 °F 29.99 in West 8.2 mph 13.8 mph 60 % 0.00 in 664.0 W/m2 CLR
09:48 73.2 °F 56.1 °F 29.99 in NNW 6.0 mph 11.5 mph 55 % 0.00 in 700.0 W/m2 CLR
09:53 73.1 °F 54.9 °F 29.99 in NW 5.9 mph 8.1 mph 53 % 0.00 in 696.0 W/m2 CLR
09:59 73.5 °F 55.8 °F 29.99 in West 11.1 mph 13.0 mph 54 % 0.00 in 700.0 W/m2 CLR
10:04 72.9 °F 55.3 °F 29.99 in WNW 5.6 mph 9.2 mph 54 % 0.00 in 721.0 W/m2 CLR
10:09 73.1 °F 55.5 °F 30.00 in West 8.2 mph 11.5 mph 54 % 0.00 in 729.0 W/m2 CLR
10:14 73.1 °F 54.9 °F 29.99 in WNW 5.7 mph 10.4 mph 53 % 0.00 in 745.0 W/m2 CLR
10:19 73.6 °F 56.4 °F 29.99 in NW 3.4 mph 6.9 mph 55 % 0.00 in 759.0 W/m2 CLR
10:24 73.4 °F 56.2 °F 30.00 in NNW 0.8 mph 3.5 mph 55 % 0.00 in 765.0 W/m2 CLR
10:29 74.4 °F 56.7 °F 30.00 in SW 0.2 mph 2.3 mph 54 % 0.00 in 772.0 W/m2 CLR
10:34 73.8 °F 57.6 °F 30.00 in West 5.7 mph 9.2 mph 57 % 0.00 in 793.0 W/m2 CLR
10:39 72.9 °F 56.8 °F 30.00 in West 2.0 mph 3.5 mph 57 % 0.00 in 798.0 W/m2 CLR
10:44 72.9 °F 56.8 °F 30.00 in SW 1.7 mph 3.5 mph 57 % 0.00 in 805.0 W/m2 CLR
10:49 73.3 °F 56.2 °F 30.00 in SW 4.9 mph 8.1 mph 55 % 0.00 in 814.0 W/m2 CLR
10:54 73.8 °F 55.6 °F 30.00 in North 3.7 mph 8.0 mph 53 % 0.00 in 830.0 W/m2 CLR
10:59 74.1 °F 54.8 °F 30.00 in SW 3.7 mph 8.1 mph 51 % 0.00 in 831.0 W/m2 CLR
11:04 74.1 °F 54.3 °F 30.00 in WSW 3.4 mph 6.9 mph 50 % 0.00 in 854.0 W/m2 CLR
11:09 74.3 °F 53.9 °F 30.00 in WSW 1.1 mph 3.5 mph 49 % 0.00 in 861.0 W/m2 CLR
11:14 74.5 °F 53.5 °F 30.01 in West 3.9 mph 9.2 mph 48 % 0.00 in 872.0 W/m2 CLR
11:19 74.8 °F 53.2 °F 30.01 in South 6.4 mph 10.4 mph 47 % 0.00 in 879.0 W/m2 CLR
11:24 74.6 °F 51.9 °F 30.01 in SSW 3.5 mph 6.9 mph 45 % 0.00 in 900.0 W/m2 CLR
11:29 74.9 °F 52.1 °F 30.01 in SW 8.0 mph 12.7 mph 45 % 0.00 in 904.0 W/m2 CLR
11:34 75.2 °F 51.8 °F 30.02 in SSW 7.1 mph 11.5 mph 44 % 0.00 in 916.0 W/m2 CLR
11:39 75.4 °F 52.0 °F 30.01 in SSW 2.1 mph 7.0 mph 44 % 0.00 in 925.0 W/m2 CLR
11:44 75.7 °F 50.3 °F 30.01 in West 4.7 mph 9.2 mph 41 % 0.00 in 930.0 W/m2 CLR
11:49 75.3 °F 49.3 °F 30.02 in SW 4.6 mph 9.2 mph 40 % 0.00 in 939.0 W/m2 CLR
11:54 76.2 °F 51.4 °F 30.02 in SW 1.0 mph 8.1 mph 42 % 0.00 in 942.0 W/m2 CLR
11:59 75.8 °F 49.8 °F 30.02 in South 6.7 mph 9.2 mph 40 % 0.00 in 947.0 W/m2 CLR
12:04 76.0 °F 49.2 °F 30.02 in WSW 3.7 mph 8.1 mph 39 % 0.00 in 954.0 W/m2 CLR
12:09 76.0 °F 49.2 °F 30.02 in West 6.5 mph 11.5 mph 39 % 0.00 in 958.0 W/m2 CLR
12:14 76.3 °F 49.5 °F 30.02 in SW 7.4 mph 11.5 mph 39 % 0.00 in 962.0 W/m2 CLR
12:19 76.3 °F 48.8 °F 30.02 in SW 5.2 mph 8.1 mph 38 % 0.00 in 969.0 W/m2 CLR
12:24 76.0 °F 48.6 °F 30.01 in SSW 4.7 mph 9.2 mph 38 % 0.00 in 970.0 W/m2 CLR
12:29 76.0 °F 48.6 °F 30.01 in SW 5.8 mph 9.2 mph 38 % 0.00 in 974.0 W/m2 CLR
12:34 76.5 °F 48.3 °F 30.01 in SW 6.8 mph 12.7 mph 37 % 0.00 in 976.0 W/m2 CLR
12:39 77.0 °F 49.4 °F 30.01 in West 5.5 mph 9.2 mph 38 % 0.00 in 977.0 W/m2 CLR
12:44 77.3 °F 49.0 °F 30.01 in SSW 7.5 mph 11.5 mph 37 % 0.00 in 979.0 W/m2 CLR
12:49 77.0 °F 48.0 °F 30.01 in SW 5.7 mph 8.1 mph 36 % 0.00 in 979.0 W/m2 CLR
12:54 76.9 °F 47.9 °F 30.01 in SSW 7.0 mph 10.4 mph 36 % 0.00 in 983.0 W/m2 CLR
12:59 76.5 °F 46.8 °F 30.00 in SSW 1.1 mph 3.0 mph 35 % 0.00 in 981.0 W/m2 CLR
13:04 77.4 °F 48.3 °F 30.00 in West 5.3 mph 9.2 mph 36 % 0.00 in 981.0 W/m2 CLR
13:09 77.8 °F 47.9 °F 30.00 in West 2.1 mph 8.1 mph 35 % 0.00 in 984.0 W/m2 CLR
13:14 78.2 °F 48.3 °F 30.00 in WSW 7.9 mph 12.0 mph 35 % 0.00 in 984.0 W/m2 CLR
13:19 77.7 °F 48.6 °F 30.00 in West 2.6 mph 8.1 mph 36 % 0.00 in 976.0 W/m2 CLR
13:24 78.8 °F 48.8 °F 30.00 in SW 3.2 mph 9.2 mph 35 % 0.00 in 1005.0 W/m2 CLR
13:29 78.3 °F 49.1 °F 30.00 in South 4.1 mph 9.0 mph 36 % 0.00 in 1004.0 W/m2 CLR
13:34 78.3 °F 49.1 °F 30.00 in SW 4.5 mph 11.5 mph 36 % 0.00 in 983.0 W/m2 CLR
13:40 77.8 °F 48.7 °F 30.00 in SSW 2.4 mph 6.0 mph 36 % 0.00 in 926.0 W/m2 CLR
13:45 78.2 °F 49.1 °F 30.00 in WSW 5.1 mph 8.1 mph 36 % 0.00 in 875.0 W/m2 CLR
13:50 78.5 °F 49.3 °F 30.00 in SSW 5.3 mph 6.9 mph 36 % 0.00 in 652.0 W/m2 CLR
13:54 77.9 °F 47.3 °F 30.01 in SW 3.0 mph 10.0 mph 34 % 0.00 in 663.0 W/m2 FEW
14:06 78.3 °F 47.6 °F 30.00 in SSW 5.4 mph 6.0 mph 34 % 0.00 in 995.0 W/m2 CLR
14:11 78.8 °F 48.8 °F 30.01 in West 1.8 mph 6.9 mph 35 % 0.00 in 962.0 W/m2 CLR
14:16 79.1 °F 49.1 °F 30.01 in West 4.0 mph 6.9 mph 35 % 0.00 in 738.0 W/m2 CLR
14:21 79.2 °F 48.4 °F 30.01 in SSW 8.2 mph 10.0 mph 34 % 0.00 in 928.0 W/m2 CLR
14:26 79.4 °F 47.8 °F 30.01 in WSW 7.3 mph 11.5 mph 33 % 0.00 in 912.0 W/m2 CLR
14:31 79.4 °F 48.6 °F 30.02 in SW 2.4 mph 9.2 mph 34 % 0.00 in 900.0 W/m2 CLR
14:36 79.1 °F 47.5 °F 30.02 in SSW 6.9 mph 10.4 mph 33 % 0.00 in 891.0 W/m2 CLR
14:41 79.0 °F 47.4 °F 30.02 in WSW 5.6 mph 8.1 mph 33 % 0.00 in 886.0 W/m2 CLR
14:46 79.2 °F 46.8 °F 30.02 in West 4.2 mph 8.0 mph 32 % 0.00 in 875.0 W/m2 CLR
14:51 79.3 °F 47.7 °F 30.02 in Calm   4.6 mph 33 % 0.00 in 879.0 W/m2 CLR
14:56 79.8 °F 48.1 °F 30.02 in SSW 7.7 mph 10.4 mph 33 % 0.00 in 861.0 W/m2 CLR
15:01 80.6 °F 49.6 °F 30.02 in SW 7.2 mph 10.0 mph 34 % 0.00 in 780.0 W/m2 CLR
15:06 79.7 °F 48.0 °F 30.02 in SW 2.0 mph 3.5 mph 33 % 0.00 in 536.0 W/m2 FEW
15:11 79.1 °F 47.5 °F 30.02 in WSW 2.9 mph 5.8 mph 33 % 0.00 in 555.0 W/m2 CLR
15:16 79.4 °F 49.4 °F 30.02 in SW 3.0 mph 6.0 mph 35 % 0.00 in 946.0 W/m2 CLR
15:21 80.4 °F 50.2 °F 30.02 in SW 4.9 mph 11.5 mph 35 % 0.00 in 868.0 W/m2 CLR
15:26 79.9 °F 49.0 °F 30.02 in WSW 5.7 mph 10.4 mph 34 % 0.00 in 548.0 W/m2 CLR
15:31 79.4 °F 49.4 °F 30.01 in WSW 5.0 mph 13.8 mph 35 % 0.00 in 564.0 W/m2 BKN
15:36 79.0 °F 48.2 °F 30.01 in SSW 7.1 mph 11.5 mph 34 % 0.00 in 297.0 W/m2 FEW
15:41 79.0 °F 48.2 °F 30.01 in WSW 1.4 mph 12.7 mph 34 % 0.00 in 744.0 W/m2 CLR
15:46 79.3 °F 49.3 °F 30.01 in SW 2.0 mph 5.8 mph 35 % 0.00 in 554.0 W/m2 SCT
15:52 79.4 °F 49.4 °F 30.00 in SW 2.4 mph 5.0 mph 35 % 0.00 in 847.0 W/m2 CLR
15:57 79.9 °F 48.2 °F 30.00 in SW 2.2 mph 7.0 mph 33 % 0.00 in 636.0 W/m2 CLR
16:02 79.6 °F 48.0 °F 30.00 in West 3.4 mph 3.4 mph 33 % 0.00 in 547.0 W/m2 CLR
16:07 79.5 °F 48.7 °F 30.00 in SW 4.8 mph 9.2 mph 34 % 0.00 in 401.0 W/m2 CLR
16:12 78.9 °F 47.3 °F 30.00 in SSW 1.9 mph 4.6 mph 33 % 0.00 in 323.0 W/m2 SCT
16:17 79.1 °F 47.5 °F 30.00 in SSW 0.2 mph 7.0 mph 33 % 0.00 in 719.0 W/m2 CLR
16:22 80.0 °F 45.8 °F 30.00 in WSW 6.5 mph 13.8 mph 30 % 0.00 in 682.0 W/m2 CLR
16:27 80.5 °F 46.2 °F 29.99 in SW 0.6 mph 3.5 mph 30 % 0.00 in 635.0 W/m2 CLR
16:32 80.6 °F 45.4 °F 30.00 in SW 0.6 mph 3.5 mph 29 % 0.00 in 615.0 W/m2 CLR
16:37 80.2 °F 45.1 °F 30.00 in West 2.4 mph 9.0 mph 29 % 0.00 in 596.0 W/m2 CLR
16:42 80.4 °F 43.3 °F 29.99 in WNW 0.8 mph 8.1 mph 27 % 0.00 in 570.0 W/m2 CLR
16:47 80.3 °F 43.3 °F 30.00 in SW 3.9 mph 6.9 mph 27 % 0.00 in 531.0 W/m2 CLR
16:52 80.1 °F 44.0 °F 29.99 in West 2.3 mph 5.8 mph 28 % 0.00 in 570.0 W/m2 CLR
16:57 80.4 °F 43.3 °F 30.00 in WSW 3.4 mph 6.9 mph 27 % 0.00 in 533.0 W/m2 CLR
17:02 80.2 °F 43.2 °F 30.00 in WSW 2.0 mph 8.1 mph 27 % 0.00 in 522.0 W/m2 CLR
17:07 80.6 °F 43.5 °F 30.00 in SW 0.2 mph 4.6 mph 27 % 0.00 in 512.0 W/m2 CLR
17:12 81.0 °F 43.9 °F 30.00 in SW 1.4 mph 4.6 mph 27 % 0.00 in 434.0 W/m2 CLR
17:17 80.9 °F 44.7 °F 30.00 in WNW 0.9 mph 6.9 mph 28 % 0.00 in 146.0 W/m2 SCT
17:22 80.3 °F 44.2 °F 29.99 in Calm     28 % 0.00 in 448.0 W/m2 CLR
17:27 80.3 °F 45.1 °F 29.99 in West 3.2 mph 7.0 mph 29 % 0.00 in 179.0 W/m2 BKN
17:32 80.0 °F 45.8 °F 29.99 in WSW 2.8 mph 7.0 mph 30 % 0.00 in 441.0 W/m2 CLR
17:37 80.0 °F 45.8 °F 29.99 in West 5.2 mph 10.4 mph 30 % 0.00 in 413.0 W/m2 CLR
17:42 79.9 °F 44.8 °F 30.00 in WSW 2.3 mph 6.9 mph 29 % 0.00 in 265.0 W/m2 FEW
17:47 80.1 °F 45.0 °F 30.00 in WNW 2.4 mph 5.0 mph 29 % 0.00 in 439.0 W/m2 CLR
17:52 80.6 °F 45.4 °F 30.00 in WNW 1.0 mph 3.5 mph 29 % 0.00 in 325.0 W/m2 CLR
17:57 80.5 °F 45.3 °F 30.00 in SW 2.1 mph 6.9 mph 29 % 0.00 in 246.0 W/m2 FEW
18:02 80.1 °F 45.9 °F 30.00 in SW 4.8 mph 6.9 mph 30 % 0.00 in 271.0 W/m2 CLR
18:07 80.0 °F 46.6 °F 30.00 in WSW 0.6 mph 2.3 mph 31 % 0.00 in 292.0 W/m2 CLR
18:12 80.1 °F 46.7 °F 30.00 in WNW 2.4 mph 3.5 mph 31 % 0.00 in 258.0 W/m2 CLR
18:17 80.2 °F 46.8 °F 30.00 in SSW 0.2 mph 3.5 mph 31 % 0.00 in 258.0 W/m2 CLR
18:22 80.2 °F 46.8 °F 30.00 in SSW 0.9 mph 3.0 mph 31 % 0.00 in 229.0 W/m2 CLR
18:27 80.0 °F 46.6 °F 30.00 in WSW 3.1 mph 10.0 mph 31 % 0.00 in 158.0 W/m2 FEW
18:32 79.8 °F 45.6 °F 30.00 in SW 1.6 mph 3.5 mph 30 % 0.00 in 146.0 W/m2 CLR
18:37 79.5 °F 46.2 °F 30.00 in Calm     31 % 0.00 in 118.0 W/m2 FEW
18:42 79.2 °F 45.9 °F 30.00 in South 1.7 mph 5.0 mph 31 % 0.00 in 47.0 W/m2 BKN
18:47 78.8 °F 46.4 °F 30.00 in WSW 0.3 mph   32 % 0.00 in 33.0 W/m2 OVC
18:52 78.4 °F 46.9 °F 30.01 in Calm     33 % 0.00 in 37.0 W/m2 OVC
18:57 78.1 °F 46.6 °F 30.01 in Calm     33 % 0.00 in 42.0 W/m2 BKN
19:02 77.8 °F 47.2 °F 30.01 in Calm     34 % 0.00 in 46.0 W/m2 BKN
19:07 77.5 °F 46.9 °F 30.01 in Calm   1.2 mph 34 % 0.00 in 47.0 W/m2 BKN
19:12 77.3 °F 47.5 °F 30.01 in Calm     35 % 0.00 in 44.0 W/m2 SCT
19:17 77.2 °F 48.2 °F 30.02 in Calm     36 % 0.00 in 40.0 W/m2 SCT
19:22 76.9 °F 47.9 °F 30.02 in Calm     36 % 0.00 in 25.0 W/m2 BKN
19:27 76.6 °F 48.4 °F 30.02 in Calm     37 % 0.00 in 23.0 W/m2 BKN
19:32 76.4 °F 48.2 °F 30.02 in Calm     37 % 0.00 in 14.0 W/m2 BKN
19:37 76.3 °F 48.8 °F 30.02 in Calm     38 % 0.00 in 12.0 W/m2 BKN
19:42 76.3 °F 48.8 °F 30.02 in Calm     38 % 0.00 in 9.0 W/m2 BKN
19:47 76.4 °F 48.2 °F 30.01 in Calm     37 % 0.00 in 5.0 W/m2 BKN
19:52 75.8 °F 48.4 °F 30.01 in Calm     38 % 0.00 in 0.0 W/m2 BKN
19:57 75.4 °F 48.7 °F 30.02 in Calm     39 % 0.00 in 0.0 W/m2 BKN
20:02 74.2 °F 49.6 °F 30.02 in Calm     42 % 0.00 in 0.0 W/m2 BKN
20:07 74.0 °F 51.3 °F 30.03 in Calm     45 % 0.00 in 0.0 W/m2 BKN
20:12 73.9 °F 51.2 °F 30.03 in Calm     45 % 0.00 in 0.0 W/m2 BKN
20:17 73.8 °F 50.5 °F 30.03 in Calm     44 % 0.00 in 0.0 W/m2 BKN
20:22 73.3 °F 50.7 °F 30.03 in Calm     45 % 0.00 in 0.0 W/m2 BKN
20:27 73.1 °F 51.1 °F 30.03 in Calm     46 % 0.00 in 0.0 W/m2 BKN
20:32 72.6 °F 50.0 °F 30.02 in Calm     45 % 0.00 in 0.0 W/m2 BKN
20:33 72.4 °F 50.4 °F 30.02 in Calm     46 % 0.00 in 0.0 W/m2 BKN
20:38 71.2 °F 50.5 °F 30.02 in Calm     48 % 0.00 in 0.0 W/m2 BKN
20:43 70.6 °F 52.1 °F 30.03 in Calm     52 % 0.00 in 0.0 W/m2 BKN
20:48 70.2 °F 51.2 °F 30.03 in Calm     51 % 0.00 in 0.0 W/m2 BKN
20:53 69.9 °F 51.5 °F 30.03 in Calm     52 % 0.00 in 0.0 W/m2 BKN
20:58 69.6 °F 51.2 °F 30.03 in Calm     52 % 0.00 in 0.0 W/m2 BKN
21:04 69.3 °F 51.4 °F 30.03 in Calm     53 % 0.00 in 0.0 W/m2 BKN
21:09 69.0 °F 51.2 °F 30.03 in Calm     53 % 0.00 in 0.0 W/m2 BKN
21:14 68.4 °F 51.1 °F 30.03 in Calm     54 % 0.00 in 0.0 W/m2 BKN
21:19 68.2 °F 51.9 °F 30.03 in Calm     56 % 0.00 in 0.0 W/m2 BKN
21:24 67.7 °F 52.4 °F 30.03 in Calm     58 % 0.00 in 0.0 W/m2 BKN
21:29 67.2 °F 51.9 °F 30.03 in Calm     58 % 0.00 in 0.0 W/m2 BKN
21:34 66.9 °F 51.2 °F 30.02 in Calm     57 % 0.00 in 0.0 W/m2 BKN
21:39 67.0 °F 52.2 °F 30.03 in Calm     59 % 0.00 in 0.0 W/m2 BKN
21:44 66.9 °F 51.6 °F 30.03 in Calm     58 % 0.00 in 0.0 W/m2 BKN
21:49 66.5 °F 51.7 °F 30.04 in Calm     59 % 0.00 in 0.0 W/m2 BKN
21:54 66.3 °F 51.5 °F 30.04 in Calm     59 % 0.00 in 0.0 W/m2 BKN
21:59 66.1 °F 51.4 °F 30.04 in Calm     59 % 0.00 in 0.0 W/m2 BKN
22:04 65.7 °F 51.4 °F 30.04 in Calm     60 % 0.00 in 0.0 W/m2 BKN
22:09 65.9 °F 52.1 °F 30.04 in Calm     61 % 0.00 in 0.0 W/m2 BKN
22:14 65.5 °F 51.2 °F 30.04 in Calm     60 % 0.00 in 0.0 W/m2 BKN
22:19 65.7 °F 51.4 °F 30.05 in Calm     60 % 0.00 in 0.0 W/m2 BKN
22:24 65.8 °F 51.5 °F 30.05 in Calm     60 % 0.00 in 0.0 W/m2 BKN
22:29 65.6 °F 51.8 °F 30.04 in Calm     61 % 0.00 in 0.0 W/m2 BKN
22:34 65.3 °F 52.4 °F 30.04 in Calm     63 % 0.00 in 0.0 W/m2 BKN
22:39 65.1 °F 52.2 °F 30.04 in Calm     63 % 0.00 in 0.0 W/m2 BKN
22:44 65.2 °F 52.3 °F 30.04 in Calm     63 % 0.00 in 0.0 W/m2 BKN
22:49 65.0 °F 52.1 °F 30.04 in Calm     63 % 0.00 in 0.0 W/m2 BKN
22:54 64.8 °F 52.3 °F 30.05 in Calm     64 % 0.00 in 0.0 W/m2 BKN
22:59 64.8 °F 52.3 °F 30.05 in Calm     64 % 0.00 in 0.0 W/m2 BKN
23:04 64.4 °F 52.4 °F 30.05 in Calm     65 % 0.00 in 0.0 W/m2 BKN
23:09 64.2 °F 52.6 °F 30.04 in Calm     66 % 0.00 in 0.0 W/m2 BKN
23:14 63.9 °F 52.7 °F 30.04 in Calm     67 % 0.00 in 0.0 W/m2 BKN
23:19 64.2 °F 53.0 °F 30.05 in Calm     67 % 0.00 in 0.0 W/m2 BKN
23:24 64.2 °F 52.6 °F 30.04 in Calm     66 % 0.00 in 0.0 W/m2 BKN
23:29 64.1 °F 52.9 °F 30.04 in Calm     67 % 0.00 in 0.0 W/m2 BKN
23:34 63.9 °F 52.7 °F 30.05 in Calm     67 % 0.00 in 0.0 W/m2 BKN
23:39 63.7 °F 52.9 °F 30.05 in Calm     68 % 0.00 in 0.0 W/m2 BKN
23:44 63.5 °F 52.7 °F 30.05 in Calm     68 % 0.00 in 0.0 W/m2 BKN
23:49 63.4 °F 53.0 °F 30.04 in Calm     69 % 0.00 in 0.0 W/m2 BKN
23:54 63.4 °F 52.7 °F 30.05 in Calm     68 % 0.00 in 0.0 W/m2 BKN
23:59 63.5 °F 52.7 °F 30.05 in Calm     68 % 0.00 in 0.0 W/m2 BKN
Air Products Campus Weather
Compliments of Weather Underground - 3.5 mb